Time;durP1;ratioP1;P1;durP2;ratioP2;P2;SDS_P1;SDS_P2;PMS_P1;PMS_P2;Temp;Humidity;BMP_temperature;BMP_pressure;BME280_temperature;BME280_humidity;BME280_pressure;Samples;Min_cycle;Max_cycle;Signal;HPM_P1;HPM_P2
2022/04/01 00:00:13;;;;;;;19.42;12.57;;;4.30;99.90;;;;;;5038012;28;20205;-81
2022/04/01 00:02:40;;;;;;;20.45;10.45;;;4.30;99.90;;;;;;5021052;28;20265;-81
2022/04/01 00:05:09;;;;;;;17.88;10.98;;;4.30;99.90;;;;;;5023188;28;20596;-81
2022/04/01 00:07:36;;;;;;;17.65;12.48;;;4.30;99.90;;;;;;5034171;28;20299;-81
2022/04/01 00:10:04;;;;;;;15.43;10.05;;;4.20;99.90;;;;;;5022452;28;20217;-81
2022/04/01 00:12:30;;;;;;;16.88;11.88;;;4.30;99.90;;;;;;5040476;28;20210;-81
2022/04/01 00:14:57;;;;;;;14.88;11.80;;;4.30;99.90;;;;;;5040611;28;20290;-81
2022/04/01 00:17:24;;;;;;;14.63;10.45;;;4.30;99.90;;;;;;5040673;28;20251;-82
2022/04/01 00:19:50;;;;;;;20.42;13.38;;;4.30;99.90;;;;;;5040139;28;20229;-82
2022/04/01 00:22:19;;;;;;;15.30;10.00;;;4.30;99.90;;;;;;5040755;28;20210;-82
2022/04/01 00:24:46;;;;;;;16.27;10.98;;;4.20;99.90;;;;;;5039807;28;20222;-81
2022/04/01 00:27:13;;;;;;;14.60;10.85;;;4.20;99.90;;;;;;5040233;28;20234;-81
2022/04/01 00:29:40;;;;;;;20.48;11.90;;;4.20;99.90;;;;;;5040871;28;20203;-81
2022/04/01 00:32:07;;;;;;;19.05;11.40;;;4.30;99.90;;;;;;5028022;28;20660;-81
2022/04/01 00:34:36;;;;;;;17.38;10.73;;;4.20;99.90;;;;;;5022315;28;20230;-81
2022/04/01 00:37:04;;;;;;;17.02;11.50;;;4.20;99.90;;;;;;5032580;28;20226;-81
2022/04/01 00:39:32;;;;;;;19.55;14.38;;;4.20;99.90;;;;;;5040125;28;20206;-81
2022/04/01 00:42:01;;;;;;;15.70;12.93;;;4.20;99.90;;;;;;5029778;28;20207;-81
2022/04/01 00:44:29;;;;;;;18.10;13.55;;;4.10;99.90;;;;;;5035092;28;20222;-81
2022/04/01 00:46:59;;;;;;;19.67;12.10;;;4.10;99.90;;;;;;5030558;28;20203;-81
2022/04/01 00:49:27;;;;;;;17.90;12.00;;;4.20;99.90;;;;;;5020219;28;20211;-81
2022/04/01 00:51:57;;;;;;;19.92;12.27;;;4.20;99.90;;;;;;5028879;28;20616;-81
2022/04/01 00:54:24;;;;;;;18.08;12.23;;;4.20;99.90;;;;;;5039703;28;20352;-81
2022/04/01 00:56:53;;;;;;;18.63;11.73;;;4.20;99.90;;;;;;5000605;28;20771;-81
2022/04/01 00:59:19;;;;;;;16.75;12.05;;;4.20;99.90;;;;;;4999636;28;20207;-81
2022/04/01 01:01:48;;;;;;;17.95;11.85;;;4.30;99.90;;;;;;5036907;28;20220;-81
2022/04/01 01:04:17;;;;;;;17.90;12.27;;;4.30;99.90;;;;;;5038260;28;20242;-81
2022/04/01 01:06:46;;;;;;;20.50;11.27;;;4.30;99.90;;;;;;5032017;28;20199;-81
2022/04/01 01:09:14;;;;;;;18.42;10.60;;;4.30;99.90;;;;;;5032154;28;20218;-81
2022/04/01 01:11:42;;;;;;;16.50;10.77;;;4.30;99.90;;;;;;5038548;28;20216;-80
2022/04/01 01:14:13;;;;;;;17.42;11.32;;;4.20;99.90;;;;;;5038602;28;20689;-81
2022/04/01 01:16:44;;;;;;;19.40;11.23;;;4.20;99.90;;;;;;5023464;28;20269;-81
2022/04/01 01:19:13;;;;;;;17.45;11.23;;;4.30;99.90;;;;;;5027446;28;20206;-81
2022/04/01 01:21:41;;;;;;;19.15;11.30;;;4.30;99.90;;;;;;5038568;28;20210;-81
2022/04/01 01:24:11;;;;;;;14.70;10.60;;;4.40;99.90;;;;;;5037397;28;20283;-81
2022/04/01 01:26:40;;;;;;;17.98;10.90;;;4.40;99.90;;;;;;5033550;28;20838;-81
2022/04/01 01:29:07;;;;;;;17.83;11.07;;;4.30;99.90;;;;;;5026335;28;20201;-81
2022/04/01 01:31:34;;;;;;;16.15;11.25;;;4.40;99.90;;;;;;5026529;28;20581;-81
2022/04/01 01:34:01;;;;;;;18.10;10.98;;;4.30;99.90;;;;;;5018706;28;20234;-81
2022/04/01 01:36:30;;;;;;;14.05;10.00;;;4.30;99.90;;;;;;5034120;28;20275;-81
2022/04/01 01:38:57;;;;;;;19.85;12.02;;;4.30;99.90;;;;;;5038483;28;20239;-82
2022/04/01 01:41:25;;;;;;;19.13;10.48;;;4.30;99.90;;;;;;5024272;28;20276;-82
2022/04/01 01:43:54;;;;;;;16.05;11.10;;;4.30;99.90;;;;;;5031245;28;20226;-81
2022/04/01 01:46:21;;;;;;;21.20;12.55;;;4.30;99.90;;;;;;5038518;28;20237;-82
2022/04/01 01:48:47;;;;;;;14.18;11.25;;;4.30;99.90;;;;;;5026962;28;20205;-81
2022/04/01 01:56:44;;;;;;;19.30;12.45;;;4.30;99.90;;;;;;5019638;28;20801;-82
2022/04/01 01:59:12;;;;;;;21.45;11.82;;;4.30;99.90;;;;;;5032139;28;20201;-81
2022/04/01 02:01:39;;;;;;;18.50;10.95;;;4.30;99.90;;;;;;5038323;28;20221;-81
2022/04/01 02:04:06;;;;;;;18.58;12.93;;;4.30;99.90;;;;;;5025619;28;20233;-81
2022/04/01 02:06:34;;;;;;;17.83;14.70;;;4.30;99.90;;;;;;5035900;28;20203;-80
2022/04/01 02:09:01;;;;;;;25.13;15.40;;;4.20;99.90;;;;;;5042448;28;20576;-81
2022/04/01 02:11:28;;;;;;;25.33;13.15;;;4.20;99.90;;;;;;5033812;28;20275;-82
2022/04/01 02:13:55;;;;;;;20.73;12.65;;;4.20;99.90;;;;;;5024087;28;20217;-82
2022/04/01 02:16:23;;;;;;;23.38;13.30;;;4.20;99.90;;;;;;5037903;28;20230;-81
2022/04/01 02:18:50;;;;;;;16.65;11.70;;;4.10;99.90;;;;;;5037038;28;20198;-81
2022/04/01 02:21:17;;;;;;;23.67;14.07;;;4.10;99.90;;;;;;5038158;28;20267;-81
2022/04/01 02:23:46;;;;;;;21.95;16.90;;;4.00;99.90;;;;;;5022252;28;20223;-82
2022/04/01 02:26:13;;;;;;;26.52;14.65;;;4.00;99.90;;;;;;5018883;28;20206;-82
2022/04/01 02:28:42;;;;;;;27.05;16.90;;;4.10;99.90;;;;;;5018405;28;20242;-82
2022/04/01 02:31:11;;;;;;;19.08;13.05;;;4.20;99.90;;;;;;5023937;28;20201;-82
2022/04/01 02:33:39;;;;;;;26.45;15.20;;;4.20;99.90;;;;;;5038846;28;20628;-82
2022/04/01 02:36:10;;;;;;;28.95;16.38;;;4.20;99.90;;;;;;5038798;28;20226;-82
2022/04/01 02:38:37;;;;;;;22.05;14.93;;;4.20;99.90;;;;;;5024697;28;20214;-82
2022/04/01 02:41:05;;;;;;;26.23;14.95;;;4.20;99.90;;;;;;5018533;28;20214;-82
2022/04/01 02:43:32;;;;;;;23.98;14.50;;;4.20;99.90;;;;;;5019887;28;20214;-82
2022/04/01 02:45:59;;;;;;;23.73;16.48;;;4.20;99.90;;;;;;5019032;28;20203;-83
2022/04/01 02:48:26;;;;;;;20.98;15.23;;;4.10;99.90;;;;;;5019223;28;20259;-83
2022/04/01 02:50:54;;;;;;;20.25;13.85;;;4.10;99.90;;;;;;5034196;28;20210;-83
2022/04/01 02:53:21;;;;;;;28.50;17.92;;;4.20;99.90;;;;;;5038727;28;20210;-84
2022/04/01 02:55:48;;;;;;;23.90;16.83;;;4.20;99.90;;;;;;5038700;28;20205;-83
2022/04/01 02:58:15;;;;;;;29.38;17.48;;;4.10;99.90;;;;;;5038800;28;20259;-83
2022/04/01 03:00:41;;;;;;;31.15;21.50;;;4.10;99.90;;;;;;5028717;28;20207;-83
2022/04/01 03:03:09;;;;;;;24.65;16.40;;;4.20;99.90;;;;;;5037559;28;20207;-83
2022/04/01 03:05:37;;;;;;;23.23;17.05;;;4.10;99.90;;;;;;5030413;28;20219;-84
2022/04/01 03:08:06;;;;;;;28.90;20.38;;;4.10;99.90;;;;;;5018950;28;20207;-83
2022/04/01 03:10:32;;;;;;;27.90;17.85;;;4.00;99.90;;;;;;5029208;28;20257;-83
2022/04/01 03:13:00;;;;;;;27.27;19.35;;;4.10;99.90;;;;;;5037120;28;20240;-83
2022/04/01 03:15:28;;;;;;;38.78;22.08;;;4.00;99.90;;;;;;5018988;28;20323;-83
2022/04/01 03:17:59;;;;;;;43.80;24.50;;;3.90;99.90;;;;;;5020066;28;20227;-82
2022/04/01 03:20:29;;;;;;;46.05;22.88;;;3.70;99.90;;;;;;5000025;28;20212;-82
2022/04/01 03:22:57;;;;;;;42.30;23.70;;;3.80;99.90;;;;;;5002776;28;20246;-81
2022/04/01 03:25:32;;;;;;;33.35;19.50;;;3.70;99.90;;;;;;5034245;28;20234;-82
2022/04/01 03:28:00;;;;;;;28.73;16.52;;;3.60;99.90;;;;;;5040122;28;20273;-81
2022/04/01 03:30:27;;;;;;;32.60;21.58;;;3.60;99.90;;;;;;5041280;28;20208;-81
2022/04/01 03:32:54;;;;;;;31.10;19.77;;;3.60;99.90;;;;;;5035298;28;20208;-81
2022/04/01 03:35:21;;;;;;;34.35;21.88;;;3.60;99.90;;;;;;5022281;28;20226;-82
2022/04/01 03:37:49;;;;;;;32.55;20.33;;;3.70;99.90;;;;;;5027076;28;20596;-82
2022/04/01 03:40:17;;;;;;;24.67;17.42;;;3.70;99.90;;;;;;5041857;28;20763;-81
2022/04/01 03:42:46;;;;;;;31.83;20.20;;;3.60;99.90;;;;;;5042069;28;20210;-82
2022/04/01 03:45:17;;;;;;;29.02;17.65;;;3.50;99.90;;;;;;5041956;28;20231;-81
2022/04/01 03:47:53;;;;;;;28.77;17.90;;;3.50;99.90;;;;;;5037310;28;20212;-82
2022/04/01 03:50:32;;;;;;;31.17;17.40;;;3.50;99.90;;;;;;5022646;28;20213;-82
2022/04/01 03:53:04;;;;;;;27.63;15.65;;;3.50;99.90;;;;;;5038451;28;20206;-82
2022/04/01 03:55:33;;;;;;;26.02;16.88;;;3.50;99.90;;;;;;5042406;28;20647;-82
2022/04/01 03:58:07;;;;;;;29.00;16.25;;;3.50;99.90;;;;;;5025106;28;20222;-82
2022/04/01 04:00:34;;;;;;;26.35;16.10;;;3.50;99.90;;;;;;5031740;28;20211;-82
2022/04/01 04:03:07;;;;;;;26.27;17.13;;;3.50;99.90;;;;;;5032949;28;20209;-82
2022/04/01 04:05:36;;;;;;;28.10;14.77;;;3.40;99.90;;;;;;5022472;28;20230;-82
2022/04/01 04:08:03;;;;;;;21.75;16.70;;;3.40;99.90;;;;;;5030234;28;20202;-82
2022/04/01 04:10:32;;;;;;;27.45;16.98;;;3.40;99.90;;;;;;5040939;28;20210;-82
2022/04/01 04:13:00;;;;;;;20.90;12.65;;;3.30;99.90;;;;;;5025803;28;20241;-81
2022/04/01 04:15:39;;;;;;;21.48;12.52;;;3.20;99.90;;;;;;5025963;28;20241;-81
2022/04/01 04:18:11;;;;;;;17.65;13.32;;;3.30;99.90;;;;;;5041185;28;20568;-81
2022/04/01 04:20:41;;;;;;;19.98;11.07;;;3.20;99.90;;;;;;5034383;28;20287;-81
2022/04/01 04:23:14;;;;;;;15.48;12.15;;;3.20;99.90;;;;;;5020774;28;20207;-81
2022/04/01 04:25:53;;;;;;;23.45;11.63;;;3.10;99.90;;;;;;5020593;28;20629;-82
2022/04/01 04:28:25;;;;;;;20.13;12.25;;;3.10;99.90;;;;;;5023349;28;20209;-81
2022/04/01 04:30:55;;;;;;;15.90;12.30;;;3.10;99.90;;;;;;5039916;28;20209;-82
2022/04/01 04:33:24;;;;;;;19.27;11.30;;;3.00;99.90;;;;;;5038033;28;20212;-81
2022/04/01 04:35:52;;;;;;;14.77;9.82;;;3.10;99.90;;;;;;5027218;28;20228;-81
2022/04/01 04:38:21;;;;;;;14.82;9.05;;;3.00;99.90;;;;;;5038964;28;20236;-81
2022/04/01 04:40:49;;;;;;;14.52;8.85;;;2.90;99.90;;;;;;5020069;28;20234;-81
2022/04/01 04:43:18;;;;;;;16.95;13.02;;;2.90;99.90;;;;;;5020417;28;20235;-81
2022/04/01 04:45:47;;;;;;;17.23;10.02;;;2.90;99.90;;;;;;5020466;28;20214;-81
2022/04/01 04:48:18;;;;;;;22.00;10.60;;;2.90;99.90;;;;;;5030756;28;20682;-82
2022/04/01 04:50:49;;;;;;;18.13;9.52;;;2.90;99.90;;;;;;5020019;28;20212;-82
2022/04/01 04:53:19;;;;;;;16.10;11.80;;;2.90;99.90;;;;;;5038229;28;20756;-82
2022/04/01 04:55:48;;;;;;;13.45;8.45;;;2.90;99.90;;;;;;5040476;28;20214;-82
2022/04/01 04:58:18;;;;;;;11.85;10.00;;;2.90;99.90;;;;;;5038586;28;20227;-81
2022/04/01 05:00:53;;;;;;;20.13;12.38;;;2.80;99.90;;;;;;5028032;28;20349;-81
2022/04/01 05:03:44;;;;;;;14.90;9.68;;;2.80;99.90;;;;;;5019357;28;20676;-81
2022/04/01 05:06:16;;;;;;;20.15;11.18;;;2.70;99.90;;;;;;5034076;28;20233;-81
2022/04/01 05:08:55;;;;;;;11.77;9.85;;;2.70;99.90;;;;;;5039681;28;20248;-81
2022/04/01 05:11:34;;;;;;;17.08;9.80;;;2.70;99.90;;;;;;5027624;28;20214;-81
2022/04/01 05:14:06;;;;;;;22.30;12.32;;;2.70;99.90;;;;;;5000317;28;20725;-81
2022/04/01 05:16:45;;;;;;;13.80;9.40;;;2.70;99.90;;;;;;4999555;28;20221;-81
2022/04/01 05:19:14;;;;;;;16.30;10.88;;;2.70;99.90;;;;;;5000096;28;20205;-82
2022/04/01 05:21:49;;;;;;;18.00;9.43;;;2.70;99.90;;;;;;5032115;28;20241;-81
2022/04/01 05:24:27;;;;;;;11.68;8.73;;;2.70;99.90;;;;;;5039986;28;20234;-81
2022/04/01 05:26:56;;;;;;;17.33;10.68;;;2.70;99.90;;;;;;5043889;28;20199;-80
2022/04/01 05:29:26;;;;;;;14.05;8.75;;;2.60;99.90;;;;;;5041845;28;20213;-81
2022/04/01 05:32:01;;;;;;;16.92;10.88;;;2.60;99.90;;;;;;5039085;28;20628;-81
2022/04/01 05:34:35;;;;;;;14.82;11.40;;;2.50;99.90;;;;;;5039185;28;20232;-82
2022/04/01 05:37:02;;;;;;;17.55;12.07;;;2.50;99.90;;;;;;5039383;28;20242;-81
2022/04/01 05:39:31;;;;;;;17.80;11.57;;;2.50;99.90;;;;;;5039623;28;20625;-80
2022/04/01 05:42:00;;;;;;;15.75;10.52;;;2.40;99.90;;;;;;5037749;28;20244;-80
2022/04/01 05:44:27;;;;;;;15.57;10.13;;;2.40;99.90;;;;;;5033276;28;20234;-80
2022/04/01 05:46:55;;;;;;;16.80;10.80;;;2.30;99.90;;;;;;5038336;28;20208;-80
2022/04/01 05:49:22;;;;;;;21.52;14.93;;;2.40;99.90;;;;;;5038372;28;20207;-80
2022/04/01 05:51:50;;;;;;;13.38;7.78;;;2.40;99.90;;;;;;5035303;28;20581;-80
2022/04/01 05:54:19;;;;;;;14.15;10.18;;;2.50;99.90;;;;;;5018460;28;20226;-80
2022/04/01 05:56:47;;;;;;;18.83;12.18;;;2.50;99.90;;;;;;5023080;28;20217;-80
2022/04/01 05:59:15;;;;;;;15.23;10.20;;;2.40;99.90;;;;;;5038247;28;20587;-79
2022/04/01 06:01:45;;;;;;;15.48;12.20;;;2.50;99.90;;;;;;5036517;28;20216;-80
2022/04/01 06:04:47;;;;;;;18.20;11.82;;;2.60;99.90;;;;;;5026245;28;20251;-80
2022/04/01 06:07:27;;;;;;;18.77;12.88;;;2.70;99.90;;;;;;5034636;28;20196;-81
2022/04/01 06:10:01;;;;;;;16.63;12.90;;;2.80;99.90;;;;;;5018939;28;20216;-80
2022/04/01 06:12:34;;;;;;;22.77;12.65;;;2.80;99.90;;;;;;5029188;28;20214;-81
2022/04/01 06:15:09;;;;;;;20.50;11.85;;;2.90;99.90;;;;;;5040691;28;20621;-81
2022/04/01 06:17:43;;;;;;;14.15;10.85;;;2.70;99.90;;;;;;5036202;28;20252;-81
2022/04/01 06:20:12;;;;;;;15.55;10.73;;;2.70;99.90;;;;;;5009707;28;20644;-81
2022/04/01 06:22:48;;;;;;;15.90;10.15;;;2.70;99.90;;;;;;5007288;28;20273;-80
2022/04/01 06:25:20;;;;;;;19.02;12.00;;;2.60;99.90;;;;;;5012474;28;20222;-81
2022/04/01 06:27:49;;;;;;;20.08;12.63;;;2.50;99.90;;;;;;5017332;28;20214;-81
2022/04/01 06:30:17;;;;;;;21.73;13.35;;;2.50;99.90;;;;;;5014521;28;20229;-81
2022/04/01 06:32:52;;;;;;;16.27;11.68;;;2.50;99.90;;;;;;5011445;28;20582;-80
2022/04/01 06:35:24;;;;;;;15.50;9.00;;;2.40;99.90;;;;;;5005292;28;20542;-81
2022/04/01 06:37:56;;;;;;;15.60;10.65;;;2.30;99.90;;;;;;5008545;28;20252;-80
2022/04/01 06:40:27;;;;;;;21.45;12.20;;;2.30;99.90;;;;;;5012880;28;20248;-81
2022/04/01 06:42:54;;;;;;;16.88;12.40;;;2.30;99.90;;;;;;5009029;28;20201;-80
2022/04/01 06:45:21;;;;;;;17.33;11.32;;;2.30;99.90;;;;;;5008009;28;20215;-80
2022/04/01 06:47:48;;;;;;;18.83;13.05;;;2.30;99.90;;;;;;5009526;28;20200;-81
2022/04/01 06:50:16;;;;;;;24.30;14.15;;;2.30;99.90;;;;;;5013940;28;20215;-81
2022/04/01 06:52:43;;;;;;;18.75;12.23;;;2.30;99.90;;;;;;5022490;28;20657;-82
2022/04/01 06:55:13;;;;;;;19.77;13.25;;;2.40;99.90;;;;;;5040581;28;20583;-82
2022/04/01 06:57:40;;;;;;;19.08;14.07;;;2.30;99.90;;;;;;5036512;28;20218;-82
2022/04/01 07:00:11;;;;;;;20.55;12.60;;;2.20;99.90;;;;;;5022480;28;20203;-82
2022/04/01 07:02:38;;;;;;;22.92;14.05;;;2.30;99.90;;;;;;5029313;28;20294;-82
2022/04/01 07:05:06;;;;;;;12.77;10.60;;;2.30;99.90;;;;;;5037451;28;20224;-80
2022/04/01 07:07:33;;;;;;;26.58;13.55;;;2.30;99.90;;;;;;5027511;28;20196;-81
2022/04/01 07:10:00;;;;;;;17.02;11.13;;;2.30;99.90;;;;;;5045002;28;20220;-82
2022/04/01 07:12:32;;;;;;;18.98;13.00;;;2.20;99.90;;;;;;5043687;28;20669;-84
2022/04/01 07:14:58;;;;;;;25.85;13.38;;;2.20;99.90;;;;;;5027391;28;20332;-82
2022/04/01 07:17:25;;;;;;;17.58;12.88;;;2.20;99.90;;;;;;5030788;28;20225;-81
2022/04/01 07:19:52;;;;;;;16.45;12.98;;;2.10;99.90;;;;;;5040462;28;20253;-81
2022/04/01 07:22:19;;;;;;;24.98;13.82;;;2.10;99.90;;;;;;5040208;28;20680;-82
2022/04/01 07:24:46;;;;;;;21.73;12.63;;;2.10;99.90;;;;;;5040604;28;20222;-81
2022/04/01 07:27:13;;;;;;;20.00;12.07;;;2.10;99.90;;;;;;5037125;28;20202;-83
2022/04/01 07:29:41;;;;;;;18.38;15.30;;;2.10;99.90;;;;;;5039934;28;20209;-84
2022/04/01 07:34:53;;;;;;;19.08;14.90;;;2.20;99.90;;;;;;5030881;28;20761;-84
2022/04/01 07:37:21;;;;;;;20.48;14.68;;;2.20;99.90;;;;;;5039525;28;20207;-85
2022/04/01 07:40:07;;;;;;;23.88;15.43;;;2.30;99.90;;;;;;5040167;28;20254;-85
2022/04/01 07:42:35;;;;;;;12.50;10.88;;;2.20;99.90;;;;;;5038988;28;20630;-84
2022/04/01 07:45:04;;;;;;;28.77;15.40;;;2.10;99.90;;;;;;5029428;28;20257;-85
2022/04/01 07:47:33;;;;;;;24.90;15.80;;;2.20;99.90;;;;;;5027889;28;20598;-85
2022/04/01 07:50:00;;;;;;;27.48;14.90;;;2.20;99.90;;;;;;5030092;28;20261;-85
2022/04/01 07:52:29;;;;;;;13.10;10.88;;;2.30;99.90;;;;;;5042038;28;20205;-83
2022/04/01 07:54:57;;;;;;;24.42;13.70;;;2.30;99.90;;;;;;5047396;28;20259;-85
2022/04/01 07:57:24;;;;;;;22.95;14.63;;;2.20;99.90;;;;;;5035888;28;20246;-85
2022/04/01 07:59:51;;;;;;;23.60;15.45;;;2.20;99.90;;;;;;5024234;28;20211;-84
2022/04/01 08:02:19;;;;;;;17.33;11.07;;;2.30;99.90;;;;;;5030118;28;20227;-86
2022/04/01 08:04:45;;;;;;;18.65;12.82;;;2.30;99.90;;;;;;5050420;28;20289;-84
2022/04/01 08:07:16;;;;;;;19.73;13.93;;;2.30;99.90;;;;;;5037982;28;20212;-85
2022/04/01 08:09:43;;;;;;;17.10;10.75;;;2.20;99.90;;;;;;5031062;28;20207;-86
2022/04/01 08:12:10;;;;;;;16.25;11.93;;;2.20;99.90;;;;;;5042026;28;20266;-85
2022/04/01 08:14:39;;;;;;;24.90;13.27;;;2.20;99.90;;;;;;5036982;28;20253;-84
2022/04/01 08:17:06;;;;;;;15.77;12.65;;;2.30;99.90;;;;;;5030690;28;20208;-85
2022/04/01 08:19:38;;;;;;;25.65;14.13;;;2.30;99.90;;;;;;5032204;28;20216;-86
2022/04/01 08:22:12;;;;;;;22.33;14.05;;;2.30;99.90;;;;;;5026264;28;20264;-86
2022/04/01 08:24:40;;;;;;;25.50;14.32;;;2.40;99.90;;;;;;5031463;28;20775;-84
2022/04/01 08:27:07;;;;;;;17.08;12.18;;;2.40;99.90;;;;;;5037697;28;20232;-84
2022/04/01 08:29:36;;;;;;;19.13;11.70;;;2.30;99.90;;;;;;5039601;28;20204;-85
2022/04/01 08:32:06;;;;;;;19.80;12.82;;;2.30;99.90;;;;;;5032542;28;20244;-85
2022/04/01 08:34:37;;;;;;;17.15;10.43;;;2.30;99.90;;;;;;5031934;28;20228;-84
2022/04/01 08:37:06;;;;;;;21.27;16.02;;;2.30;99.90;;;;;;5027240;28;20226;-85
2022/04/01 08:42:52;;;;;;;22.17;12.32;;;2.30;99.90;;;;;;5026536;28;20217;-83
2022/04/01 08:45:20;;;;;;;19.00;15.75;;;2.40;99.90;;;;;;5023840;28;20224;-85
2022/04/01 08:47:57;;;;;;;16.00;10.65;;;2.40;99.90;;;;;;5024360;28;20228;-84
2022/04/01 08:50:25;;;;;;;17.67;12.07;;;2.30;99.90;;;;;;5039907;28;20216;-84
2022/04/01 08:52:53;;;;;;;12.95;11.55;;;2.30;99.90;;;;;;5022015;28;20676;-84
2022/04/01 08:55:20;;;;;;;20.08;15.15;;;2.30;99.90;;;;;;5020013;28;20766;-84
2022/04/01 08:57:47;;;;;;;20.02;14.63;;;2.40;99.90;;;;;;5036758;28;20209;-84
2022/04/01 09:00:36;;;;;;;22.20;15.20;;;2.40;99.90;;;;;;5040193;28;20207;-85
2022/04/01 09:03:06;;;;;;;17.05;14.77;;;2.40;99.90;;;;;;5037517;28;20208;-87
2022/04/01 09:05:55;;;;;;;15.90;11.75;;;2.30;99.90;;;;;;5031667;22;20236;-87
2022/04/01 09:08:24;;;;;;;18.27;12.85;;;2.20;99.90;;;;;;5020154;28;20270;-86
2022/04/01 09:10:57;;;;;;;16.55;10.43;;;2.10;99.90;;;;;;5019535;28;20572;-86
2022/04/01 09:13:25;;;;;;;14.65;10.98;;;2.20;99.90;;;;;;5022408;28;20222;-85
2022/04/01 09:15:54;;;;;;;18.58;12.82;;;2.10;99.90;;;;;;5023038;28;20208;-85
2022/04/01 09:18:40;;;;;;;20.10;12.23;;;2.10;99.90;;;;;;5021795;28;20232;-84
2022/04/01 09:21:10;;;;;;;22.45;14.77;;;2.20;99.90;;;;;;5022492;28;20217;-85
2022/04/01 09:23:37;;;;;;;14.50;9.90;;;2.30;99.90;;;;;;5020630;28;20206;-85
2022/04/01 09:26:05;;;;;;;20.25;12.88;;;2.30;99.90;;;;;;5016703;28;20217;-83
2022/04/01 09:28:33;;;;;;;16.52;12.60;;;2.30;99.90;;;;;;5015658;28;20200;-81
2022/04/01 09:31:02;;;;;;;13.65;11.23;;;2.30;99.90;;;;;;5015095;28;20204;-83
2022/04/01 09:33:46;;;;;;;13.05;10.05;;;2.20;99.90;;;;;;5015493;28;20687;-82
2022/04/01 09:36:17;;;;;;;16.52;11.70;;;2.20;99.90;;;;;;5015503;28;20203;-81
2022/04/01 09:38:59;;;;;;;18.08;11.90;;;2.20;99.90;;;;;;5016022;28;20229;-84
2022/04/01 09:41:31;;;;;;;15.93;10.27;;;2.20;99.90;;;;;;5015374;28;20210;-81
2022/04/01 09:44:06;;;;;;;15.80;11.55;;;2.20;99.90;;;;;;5017081;28;20227;-82
2022/04/01 09:46:34;;;;;;;20.88;12.77;;;2.20;99.90;;;;;;5019369;28;20219;-84
2022/04/01 09:49:01;;;;;;;10.93;7.82;;;2.30;99.90;;;;;;5019323;28;20208;-83
2022/04/01 09:52:13;;;;;;;16.70;11.57;;;2.30;99.90;;;;;;5022243;28;20238;-82
2022/04/01 09:54:44;;;;;;;14.90;10.30;;;2.20;99.90;;;;;;4975041;28;20236;-83
2022/04/01 10:00:36;;;;;;;11.82;7.35;;;2.40;99.90;;;;;;5019154;28;20207;-84
2022/04/01 10:03:06;;;;;;;16.63;10.50;;;2.30;99.90;;;;;;5014377;28;20218;-83
2022/04/01 10:05:35;;;;;;;16.15;9.57;;;2.30;99.90;;;;;;5016136;28;20298;-85
2022/04/01 10:08:14;;;;;;;13.40;9.85;;;2.40;99.90;;;;;;5017027;28;20204;-85
2022/04/01 10:10:42;;;;;;;14.18;10.65;;;2.40;99.90;;;;;;5016257;28;20203;-84
2022/04/01 10:13:14;;;;;;;15.45;12.57;;;2.40;99.90;;;;;;5017182;28;20215;-84
2022/04/01 10:15:43;;;;;;;17.00;10.20;;;2.30;99.90;;;;;;5017038;28;20228;-84
2022/04/01 10:18:14;;;;;;;17.33;11.05;;;2.50;99.90;;;;;;5016891;28;20213;-84
2022/04/01 10:20:41;;;;;;;13.35;10.10;;;2.50;99.90;;;;;;5022974;28;20203;-84
2022/04/01 10:23:11;;;;;;;13.65;9.00;;;2.50;99.90;;;;;;5021224;28;20217;-85
2022/04/01 10:25:44;;;;;;;12.00;8.77;;;2.50;99.90;;;;;;5022172;28;20228;-84
2022/04/01 10:28:12;;;;;;;15.10;10.68;;;2.50;99.90;;;;;;5022898;28;20294;-84
2022/04/01 10:30:40;;;;;;;14.35;8.55;;;2.50;99.90;;;;;;5023715;28;20291;-84
2022/04/01 10:34:04;;;;;;;13.65;11.63;;;2.50;99.90;;;;;;5021156;28;20251;-83
2022/04/01 10:36:33;;;;;;;10.95;9.07;;;2.50;99.90;;;;;;5019999;28;20209;-85
2022/04/01 10:39:05;;;;;;;12.80;8.68;;;2.40;99.90;;;;;;5022649;28;20238;-85
2022/04/01 10:41:33;;;;;;;11.93;9.95;;;2.50;99.90;;;;;;5018592;28;20678;-85
2022/04/01 10:54:06;;;;;;;7.85;6.18;;;2.50;99.90;;;;;;4923337;28;20255;-85
2022/04/01 10:56:37;;;;;;;8.07;7.18;;;2.50;99.90;;;;;;5001196;28;20207;-84
2022/04/01 10:59:15;;;;;;;8.35;5.53;;;2.50;99.90;;;;;;4985466;28;20266;-83
2022/04/01 11:02:02;;;;;;;11.77;7.85;;;2.30;99.90;;;;;;5005132;28;20210;-83
2022/04/01 11:04:31;;;;;;;7.70;5.78;;;2.20;99.90;;;;;;5008865;28;20242;-84
2022/04/01 11:07:00;;;;;;;6.43;4.78;;;2.20;99.90;;;;;;5008427;28;20209;-83
2022/04/01 11:09:36;;;;;;;5.65;5.05;;;2.30;99.90;;;;;;5010087;28;20226;-84
2022/04/01 11:12:25;;;;;;;5.10;4.60;;;2.30;99.90;;;;;;5002900;28;20217;-83
2022/04/01 11:15:16;;;;;;;6.20;5.20;;;2.20;99.90;;;;;;5006248;28;20328;-83
2022/04/01 11:18:06;;;;;;;9.77;8.85;;;2.30;99.90;;;;;;5001665;28;20208;-83
2022/04/01 11:20:35;;;;;;;6.38;5.65;;;2.40;99.90;;;;;;5002943;28;20225;-82
2022/04/01 11:23:05;;;;;;;5.55;5.05;;;2.30;99.90;;;;;;5005556;28;20744;-82
2022/04/01 11:25:54;;;;;;;5.72;5.20;;;2.20;99.90;;;;;;5005055;28;20232;-82
2022/04/01 11:28:24;;;;;;;7.65;6.75;;;2.20;99.90;;;;;;5004143;28;20209;-82
2022/04/01 11:31:15;;;;;;;6.03;5.53;;;2.30;99.90;;;;;;5002960;28;20214;-82
2022/04/01 11:33:57;;;;;;;5.47;4.97;;;2.20;99.90;;;;;;4999398;28;20229;-82
2022/04/01 11:36:25;;;;;;;7.72;5.50;;;2.30;99.90;;;;;;5000300;28;20253;-82
2022/04/01 11:38:51;;;;;;;7.13;5.28;;;2.30;99.90;;;;;;4993239;28;20229;-82
2022/04/01 11:41:20;;;;;;;4.32;3.92;;;2.40;99.90;;;;;;4995037;28;20217;-84
2022/04/01 11:44:11;;;;;;;5.97;5.25;;;2.40;99.90;;;;;;5002849;28;20255;-83
2022/04/01 11:46:40;;;;;;;5.15;4.57;;;2.40;99.90;;;;;;5003330;28;20212;-82
2022/04/01 11:49:10;;;;;;;6.95;6.25;;;2.60;99.90;;;;;;5004057;28;20272;-82
2022/04/01 11:51:43;;;;;;;4.57;4.18;;;2.70;99.90;;;;;;5001527;28;20246;-81
2022/04/01 12:01:58;;;;;;;5.35;4.95;;;2.70;99.90;;;;;;5017290;28;20627;-82
2022/04/01 12:04:30;;;;;;;5.78;5.28;;;2.60;99.90;;;;;;5007361;28;20231;-81
2022/04/01 12:09:44;;;;;;;6.57;6.07;;;2.70;99.90;;;;;;5003002;28;20271;-80
2022/04/01 12:12:11;;;;;;;6.72;6.13;;;2.70;99.90;;;;;;4996773;28;20247;-81
2022/04/01 12:14:39;;;;;;;6.25;5.47;;;2.70;99.90;;;;;;4996818;28;20717;-80
2022/04/01 12:17:08;;;;;;;12.43;4.72;;;2.70;99.90;;;;;;4996602;28;20258;-81
2022/04/01 12:19:35;;;;;;;5.90;4.72;;;2.70;99.90;;;;;;4995245;28;20251;-80
2022/04/01 12:22:02;;;;;;;5.85;4.47;;;2.60;99.90;;;;;;4996343;28;20331;-80
2022/04/01 12:24:30;;;;;;;6.10;5.60;;;2.60;99.90;;;;;;4996266;28;20273;-80
2022/04/01 12:26:58;;;;;;;6.55;5.68;;;2.60;99.90;;;;;;4996613;28;20212;-81
2022/04/01 12:29:29;;;;;;;6.88;6.25;;;2.70;99.90;;;;;;4995267;28;20344;-82
2022/04/01 12:31:58;;;;;;;6.60;5.85;;;2.70;99.90;;;;;;4996852;28;20242;-81
2022/04/01 12:34:27;;;;;;;7.80;6.95;;;2.50;99.90;;;;;;4991970;28;20244;-80
2022/04/01 12:36:59;;;;;;;6.85;6.03;;;2.60;99.90;;;;;;4994100;28;20264;-80
2022/04/01 12:39:25;;;;;;;7.32;6.63;;;2.50;99.90;;;;;;4994987;28;20251;-80
2022/04/01 12:41:54;;;;;;;7.25;6.00;;;2.60;99.90;;;;;;4997676;28;20213;-81
2022/04/01 12:44:25;;;;;;;8.40;7.60;;;2.40;99.90;;;;;;4998946;28;20226;-80
2022/04/01 12:46:52;;;;;;;7.45;6.75;;;2.50;99.90;;;;;;5001446;28;20214;-80
2022/04/01 12:49:20;;;;;;;10.63;8.57;;;2.40;99.90;;;;;;4999683;28;20242;-80
2022/04/01 12:51:54;;;;;;;7.50;6.75;;;2.50;99.90;;;;;;4999522;28;20746;-80
2022/04/01 12:54:29;;;;;;;12.30;9.25;;;2.60;99.90;;;;;;4998988;28;20236;-80
2022/04/01 12:56:58;;;;;;;9.27;8.40;;;2.60;99.90;;;;;;4998347;28;20219;-80
2022/04/01 12:59:25;;;;;;;6.22;5.70;;;2.60;99.90;;;;;;4997767;28;20247;-80
2022/04/01 13:02:04;;;;;;;10.32;8.93;;;2.50;99.90;;;;;;4997483;28;20599;-80
2022/04/01 13:04:40;;;;;;;12.85;11.65;;;2.60;99.90;;;;;;4997609;28;20264;-79
2022/04/01 13:07:13;;;;;;;9.93;8.40;;;2.50;99.90;;;;;;4997402;28;20230;-80
2022/04/01 13:09:49;;;;;;;9.48;8.10;;;2.50;99.90;;;;;;4998137;28;20216;-80
2022/04/01 13:12:18;;;;;;;6.82;5.38;;;2.30;99.90;;;;;;4998110;28;20218;-80
2022/04/01 13:14:45;;;;;;;10.82;9.68;;;2.20;99.90;;;;;;4997866;28;20602;-80
2022/04/01 13:17:15;;;;;;;10.23;7.22;;;2.20;99.90;;;;;;4999093;28;20269;-80
2022/04/01 13:19:44;;;;;;;9.50;8.30;;;2.30;99.90;;;;;;5006110;28;20234;-83
2022/04/01 13:22:13;;;;;;;9.75;7.95;;;2.10;99.90;;;;;;5009766;28;20279;-82
2022/04/01 13:24:43;;;;;;;7.90;7.10;;;2.10;99.90;;;;;;5011161;28;20295;-82
2022/04/01 13:27:12;;;;;;;9.25;8.07;;;2.10;99.90;;;;;;5005502;28;20293;-82
2022/04/01 13:29:39;;;;;;;10.50;9.35;;;2.20;99.90;;;;;;5006286;28;20202;-82
2022/04/01 13:32:07;;;;;;;11.48;9.57;;;2.10;99.90;;;;;;5005820;28;20207;-81